Time;durP1;ratioP1;P1;durP2;ratioP2;P2;SDS_P1;SDS_P2;PMS_P1;PMS_P2;Temp;Humidity;BMP_temperature;BMP_pressure;BME280_temperature;BME280_humidity;BME280_pressure;Samples;Min_cycle;Max_cycle;Signal;HPM_P1;HPM_P2
2021/09/24 00:02:07;;;;;;;1.20;1.00;;;12.70;98.00;;;;;;5111474;28;20513;-69
2021/09/24 00:04:36;;;;;;;1.20;1.10;;;12.60;98.00;;;;;;5111695;28;20877;-70
2021/09/24 00:07:04;;;;;;;1.30;1.20;;;12.50;98.00;;;;;;5111317;28;20451;-69
2021/09/24 00:09:31;;;;;;;1.20;1.07;;;12.40;98.00;;;;;;5111504;28;20509;-70
2021/09/24 00:11:58;;;;;;;1.20;1.17;;;12.30;98.00;;;;;;5111518;28;20591;-69
2021/09/24 00:14:27;;;;;;;1.20;1.10;;;12.30;98.00;;;;;;5111443;28;20501;-69
2021/09/24 00:16:54;;;;;;;1.30;1.10;;;12.40;98.00;;;;;;5111165;28;20450;-69
2021/09/24 00:19:21;;;;;;;1.40;1.13;;;12.30;98.00;;;;;;5111327;28;20500;-70
2021/09/24 00:21:48;;;;;;;1.20;1.00;;;12.40;98.00;;;;;;5111306;28;20514;-69
2021/09/24 00:24:15;;;;;;;1.20;1.00;;;12.50;98.00;;;;;;5111380;28;20454;-70
2021/09/24 00:26:43;;;;;;;1.20;1.20;;;12.40;98.00;;;;;;5111251;28;20517;-70
2021/09/24 00:29:10;;;;;;;1.77;1.27;;;12.50;98.00;;;;;;5111267;28;20548;-69
2021/09/24 00:31:38;;;;;;;1.40;1.27;;;12.60;98.00;;;;;;5111320;28;20526;-70
2021/09/24 00:34:05;;;;;;;1.20;1.00;;;12.60;98.00;;;;;;5111034;28;20484;-69
2021/09/24 00:36:32;;;;;;;1.80;1.20;;;12.60;98.00;;;;;;5111356;28;20457;-70
2021/09/24 00:38:59;;;;;;;1.73;1.30;;;12.60;98.00;;;;;;5111042;28;20548;-69
2021/09/24 00:41:26;;;;;;;1.20;1.10;;;12.60;98.00;;;;;;5111115;28;20458;-69
2021/09/24 00:43:53;;;;;;;1.20;1.07;;;12.50;98.00;;;;;;5111147;28;20947;-70
2021/09/24 00:46:20;;;;;;;1.37;1.10;;;12.50;98.00;;;;;;5111231;28;20882;-69
2021/09/24 00:48:50;;;;;;;1.30;1.17;;;12.50;98.00;;;;;;5111401;28;20444;-69
2021/09/24 00:51:17;;;;;;;1.20;1.13;;;12.20;98.00;;;;;;5111199;28;20508;-70
2021/09/24 00:53:47;;;;;;;2.17;1.73;;;12.00;98.00;;;;;;5111359;28;20603;-70
2021/09/24 00:56:15;;;;;;;1.20;1.00;;;11.90;98.00;;;;;;5111164;28;20455;-72
2021/09/24 00:58:42;;;;;;;1.60;1.53;;;11.80;98.00;;;;;;5111072;28;20531;-70
2021/09/24 01:01:09;;;;;;;2.37;1.60;;;12.00;98.00;;;;;;5111024;28;20461;-70
2021/09/24 01:03:36;;;;;;;1.53;1.43;;;12.00;98.00;;;;;;5111028;28;20494;-69
2021/09/24 01:06:05;;;;;;;1.40;1.13;;;12.00;98.00;;;;;;5111895;28;20543;-71
2021/09/24 01:08:33;;;;;;;1.23;1.20;;;12.10;98.00;;;;;;5114860;28;20942;-69
2021/09/24 01:11:00;;;;;;;1.97;1.40;;;12.10;98.00;;;;;;5114938;28;20538;-71
2021/09/24 01:13:28;;;;;;;1.40;1.23;;;11.80;98.00;;;;;;5114721;28;20606;-70
2021/09/24 01:15:55;;;;;;;1.53;1.17;;;11.60;98.00;;;;;;5114752;28;20459;-70
2021/09/24 01:18:22;;;;;;;1.70;1.30;;;11.40;98.00;;;;;;5114405;28;20520;-72
2021/09/24 01:20:55;;;;;;;1.20;1.00;;;11.50;98.00;;;;;;5114729;28;20503;-70
2021/09/24 01:23:24;;;;;;;1.67;1.13;;;11.50;98.00;;;;;;5114590;28;20455;-69
2021/09/24 01:25:52;;;;;;;1.83;1.30;;;11.60;98.00;;;;;;5114498;28;20499;-69
2021/09/24 01:28:19;;;;;;;1.30;1.20;;;11.70;98.00;;;;;;5114232;28;20454;-71
2021/09/24 01:30:46;;;;;;;1.63;1.30;;;11.70;98.00;;;;;;5114381;28;20482;-71
2021/09/24 01:33:13;;;;;;;1.20;1.13;;;11.70;98.00;;;;;;5114235;28;20475;-70
2021/09/24 01:35:40;;;;;;;1.60;1.17;;;11.60;98.00;;;;;;5114500;28;20485;-70
2021/09/24 01:38:07;;;;;;;2.07;1.10;;;11.50;98.00;;;;;;5114137;28;20484;-72
2021/09/24 01:40:35;;;;;;;2.03;1.53;;;11.40;98.00;;;;;;5114013;28;20994;-69
2021/09/24 01:43:02;;;;;;;1.50;1.30;;;11.50;98.00;;;;;;5114020;28;20508;-71
2021/09/24 01:45:30;;;;;;;1.20;1.00;;;11.50;98.00;;;;;;5114361;28;20951;-69
2021/09/24 01:47:57;;;;;;;1.20;1.10;;;11.60;98.00;;;;;;5114183;28;20522;-69
2021/09/24 01:50:24;;;;;;;1.60;1.47;;;11.80;98.00;;;;;;5113982;28;20453;-70
2021/09/24 01:53:02;;;;;;;2.07;1.40;;;11.90;98.00;;;;;;5114041;28;20519;-69
2021/09/24 01:55:29;;;;;;;1.40;1.30;;;12.00;98.00;;;;;;5114098;28;20447;-69
2021/09/24 01:57:57;;;;;;;1.73;1.30;;;11.90;98.00;;;;;;5113893;28;20512;-70
2021/09/24 02:00:24;;;;;;;1.87;1.40;;;11.90;98.00;;;;;;5113923;28;20459;-71
2021/09/24 02:02:51;;;;;;;1.20;1.03;;;11.80;98.00;;;;;;5113774;28;20497;-69
2021/09/24 02:05:18;;;;;;;1.50;1.30;;;11.80;98.00;;;;;;5113847;28;20521;-69
2021/09/24 02:07:45;;;;;;;2.90;1.73;;;11.80;98.00;;;;;;5113689;28;20498;-70
2021/09/24 02:10:13;;;;;;;1.20;1.00;;;11.70;98.00;;;;;;5113787;28;20454;-69
2021/09/24 02:12:40;;;;;;;1.90;1.30;;;11.70;98.00;;;;;;5113876;28;20868;-70
2021/09/24 02:15:12;;;;;;;1.50;1.40;;;11.70;98.00;;;;;;5113817;28;20448;-70
2021/09/24 02:17:39;;;;;;;1.47;1.40;;;11.60;98.00;;;;;;5113072;28;20684;-70
2021/09/24 02:20:07;;;;;;;1.20;1.07;;;11.60;98.00;;;;;;5113557;28;20448;-70
2021/09/24 02:22:35;;;;;;;1.20;1.10;;;11.50;98.00;;;;;;5113490;28;20728;-71
2021/09/24 02:25:04;;;;;;;1.20;1.20;;;11.40;98.00;;;;;;5113469;28;20948;-69
2021/09/24 02:27:31;;;;;;;1.53;1.20;;;11.40;98.00;;;;;;5113306;28;20533;-72
2021/09/24 02:29:58;;;;;;;1.37;1.07;;;11.40;98.00;;;;;;5113436;28;20832;-70
2021/09/24 02:32:26;;;;;;;1.23;1.03;;;11.30;98.00;;;;;;5113235;28;20510;-72
2021/09/24 02:34:53;;;;;;;1.20;1.00;;;11.20;98.00;;;;;;5113196;28;20513;-71
2021/09/24 02:37:20;;;;;;;1.40;1.10;;;11.10;98.00;;;;;;5113109;28;20450;-70
2021/09/24 02:39:47;;;;;;;1.20;1.10;;;11.20;98.00;;;;;;5113113;28;20514;-69
2021/09/24 02:42:14;;;;;;;1.77;1.30;;;11.40;98.00;;;;;;5113066;28;20459;-68
2021/09/24 02:44:41;;;;;;;1.20;1.10;;;11.50;98.00;;;;;;5113199;28;20522;-70
2021/09/24 02:47:10;;;;;;;1.37;1.23;;;11.40;98.00;;;;;;5113109;28;20451;-69
2021/09/24 02:49:41;;;;;;;2.27;1.57;;;11.30;98.00;;;;;;5112895;28;20943;-69
2021/09/24 02:52:09;;;;;;;1.40;1.20;;;11.10;98.00;;;;;;5112709;28;21028;-70
2021/09/24 02:54:36;;;;;;;1.30;1.10;;;11.10;98.00;;;;;;5112944;28;20452;-71
2021/09/24 02:57:05;;;;;;;1.30;1.20;;;11.10;98.00;;;;;;5112925;28;20873;-69
2021/09/24 02:59:32;;;;;;;1.30;1.20;;;11.00;98.00;;;;;;5113168;28;20486;-71
2021/09/24 03:01:59;;;;;;;2.27;1.20;;;10.90;98.00;;;;;;5113360;28;20512;-69
2021/09/24 03:04:26;;;;;;;1.20;1.20;;;10.80;98.00;;;;;;5113626;28;21006;-71
2021/09/24 03:06:54;;;;;;;1.70;1.23;;;10.80;98.00;;;;;;5113474;28;20509;-70
2021/09/24 03:09:22;;;;;;;1.20;1.00;;;10.90;98.00;;;;;;5113543;28;20460;-70
2021/09/24 03:11:49;;;;;;;1.20;1.00;;;10.90;98.00;;;;;;5113494;28;20462;-70
2021/09/24 03:14:16;;;;;;;1.43;1.40;;;10.80;98.00;;;;;;5113254;28;20522;-68
2021/09/24 03:16:43;;;;;;;1.30;1.10;;;10.80;98.00;;;;;;5113113;27;20447;-68
2021/09/24 03:19:11;;;;;;;1.50;1.30;;;10.90;98.00;;;;;;5112615;28;20486;-71
2021/09/24 03:21:38;;;;;;;1.50;1.20;;;10.90;98.00;;;;;;5113060;28;20464;-68
2021/09/24 03:24:07;;;;;;;1.30;1.00;;;10.90;98.00;;;;;;5112959;28;20455;-71
2021/09/24 03:26:33;;;;;;;1.20;1.20;;;10.90;98.00;;;;;;5113095;28;20487;-69
2021/09/24 03:29:02;;;;;;;1.87;1.50;;;10.90;98.00;;;;;;5112125;28;20481;-69
2021/09/24 03:31:28;;;;;;;1.50;1.33;;;11.00;98.00;;;;;;5112983;28;20924;-69
2021/09/24 03:33:55;;;;;;;1.60;1.20;;;10.80;98.00;;;;;;5112982;28;20516;-68
2021/09/24 03:36:22;;;;;;;3.27;2.23;;;10.70;98.00;;;;;;5113118;28;21053;-69
2021/09/24 03:38:49;;;;;;;2.03;1.30;;;10.50;98.00;;;;;;5112927;28;20512;-69
2021/09/24 03:41:18;;;;;;;1.30;1.13;;;10.50;98.00;;;;;;5112485;28;20461;-68
2021/09/24 03:43:45;;;;;;;1.53;1.30;;;10.50;98.00;;;;;;5112355;28;20479;-70
2021/09/24 03:46:12;;;;;;;1.40;1.10;;;10.60;98.00;;;;;;5112690;28;20455;-69
2021/09/24 03:48:39;;;;;;;1.20;1.03;;;10.70;98.00;;;;;;5112483;28;20485;-68
2021/09/24 03:51:09;;;;;;;1.50;1.20;;;10.80;98.00;;;;;;5112264;28;20461;-69
2021/09/24 03:53:36;;;;;;;1.80;1.20;;;10.90;98.00;;;;;;5111994;28;20488;-67
2021/09/24 03:56:04;;;;;;;1.20;1.17;;;10.90;98.00;;;;;;5112244;28;21003;-69
2021/09/24 03:58:32;;;;;;;1.97;1.40;;;10.80;98.00;;;;;;5112190;28;20481;-68
2021/09/24 04:00:59;;;;;;;1.20;1.10;;;10.60;98.00;;;;;;5112248;28;20456;-70
2021/09/24 04:03:28;;;;;;;2.80;1.30;;;10.50;98.00;;;;;;5112070;28;20444;-68
2021/09/24 04:05:56;;;;;;;1.30;1.10;;;10.70;98.00;;;;;;5112315;28;20462;-70
2021/09/24 04:08:23;;;;;;;1.90;1.73;;;10.70;98.00;;;;;;5112029;28;20526;-71
2021/09/24 04:10:51;;;;;;;1.40;1.10;;;10.80;98.00;;;;;;5112288;28;20456;-69
2021/09/24 04:13:18;;;;;;;1.40;1.17;;;10.80;98.00;;;;;;5112188;28;20483;-68
2021/09/24 04:15:47;;;;;;;2.03;1.60;;;10.70;98.00;;;;;;5112198;28;20529;-68
2021/09/24 04:18:16;;;;;;;1.30;1.20;;;10.60;98.00;;;;;;5111950;28;20461;-69
2021/09/24 04:20:43;;;;;;;1.20;1.00;;;10.40;98.00;;;;;;5111918;28;20465;-69
2021/09/24 04:23:10;;;;;;;1.30;1.10;;;10.30;98.00;;;;;;5112162;28;20525;-68
2021/09/24 04:25:37;;;;;;;1.97;1.20;;;10.30;98.00;;;;;;5112198;28;20513;-68
2021/09/24 04:28:05;;;;;;;1.30;1.10;;;10.20;98.00;;;;;;5111877;28;20512;-68
2021/09/24 04:30:32;;;;;;;1.20;1.00;;;10.20;98.00;;;;;;5112092;28;20490;-67
2021/09/24 04:33:00;;;;;;;1.30;1.20;;;10.10;98.00;;;;;;5112050;28;20813;-69
2021/09/24 04:35:28;;;;;;;1.20;1.00;;;10.10;98.00;;;;;;5111609;28;20466;-67
2021/09/24 04:37:55;;;;;;;1.20;1.00;;;10.10;98.00;;;;;;5112088;28;20490;-68
2021/09/24 04:40:22;;;;;;;2.00;1.67;;;10.30;98.00;;;;;;5113831;28;20515;-68
2021/09/24 04:42:49;;;;;;;1.60;1.20;;;10.30;98.00;;;;;;5116065;28;20461;-69
2021/09/24 04:45:16;;;;;;;1.40;1.13;;;10.30;98.00;;;;;;5116207;28;20456;-68
2021/09/24 04:47:43;;;;;;;1.80;1.20;;;10.20;98.00;;;;;;5115951;28;20545;-70
2021/09/24 04:50:12;;;;;;;1.20;1.00;;;10.00;98.00;;;;;;5115924;28;20455;-68
2021/09/24 04:52:39;;;;;;;1.20;1.10;;;10.00;98.00;;;;;;5116075;28;20487;-68
2021/09/24 04:55:07;;;;;;;1.50;1.27;;;9.90;98.00;;;;;;5116226;28;20504;-68
2021/09/24 04:57:34;;;;;;;1.30;1.10;;;9.90;98.00;;;;;;5115910;28;20451;-69
2021/09/24 05:00:02;;;;;;;1.63;1.20;;;10.00;98.00;;;;;;5115889;28;20474;-68
2021/09/24 05:02:28;;;;;;;1.30;1.20;;;10.00;98.00;;;;;;5115700;28;20460;-68
2021/09/24 05:04:55;;;;;;;1.40;1.20;;;10.20;98.00;;;;;;5115782;28;20864;-68
2021/09/24 05:07:24;;;;;;;1.90;1.20;;;10.30;98.00;;;;;;5115530;28;20487;-68
2021/09/24 05:09:51;;;;;;;1.30;1.10;;;10.20;98.00;;;;;;5115660;28;20533;-70
2021/09/24 05:12:18;;;;;;;1.50;1.47;;;10.10;98.00;;;;;;5115268;28;20458;-69
2021/09/24 05:14:45;;;;;;;1.50;1.00;;;10.00;98.00;;;;;;5115482;28;20866;-69
2021/09/24 05:17:13;;;;;;;1.30;1.20;;;10.00;98.00;;;;;;5115472;28;21087;-71
2021/09/24 05:19:40;;;;;;;1.90;1.30;;;9.90;98.00;;;;;;5114293;28;20482;-73
2021/09/24 05:22:07;;;;;;;1.20;1.13;;;9.90;98.00;;;;;;5115586;28;20948;-71
2021/09/24 05:24:36;;;;;;;1.20;1.00;;;9.80;98.00;;;;;;5115703;28;20877;-72
2021/09/24 05:27:03;;;;;;;1.83;1.50;;;9.90;98.00;;;;;;5115452;28;20457;-72
2021/09/24 05:29:30;;;;;;;1.23;1.03;;;10.10;98.00;;;;;;5115274;28;20447;-72
2021/09/24 05:31:57;;;;;;;1.20;1.00;;;10.20;98.00;;;;;;5115474;28;20455;-71
2021/09/24 05:34:25;;;;;;;1.27;1.13;;;10.20;98.00;;;;;;5115264;28;20496;-72
2021/09/24 05:36:52;;;;;;;1.50;1.10;;;10.40;98.00;;;;;;5115068;28;20949;-73
2021/09/24 05:39:20;;;;;;;1.50;1.43;;;10.40;98.00;;;;;;5115122;28;20480;-72
2021/09/24 05:41:48;;;;;;;1.40;1.10;;;10.50;98.00;;;;;;5114772;28;20462;-72
2021/09/24 05:44:16;;;;;;;1.27;1.20;;;10.30;98.00;;;;;;5115262;28;20494;-72
2021/09/24 05:46:43;;;;;;;1.20;0.90;;;10.40;98.00;;;;;;5115163;28;21256;-72
2021/09/24 05:49:10;;;;;;;1.63;1.20;;;10.40;98.00;;;;;;5115275;28;20458;-72
2021/09/24 05:51:37;;;;;;;1.50;1.27;;;10.40;98.00;;;;;;5114232;28;20459;-72
2021/09/24 05:54:04;;;;;;;1.70;1.20;;;10.30;98.00;;;;;;5115109;28;20875;-73
2021/09/24 05:56:31;;;;;;;1.57;1.20;;;10.30;98.00;;;;;;5114894;28;20964;-72
2021/09/24 05:59:00;;;;;;;1.77;1.00;;;10.30;98.00;;;;;;5114284;28;20445;-74
2021/09/24 06:01:27;;;;;;;1.20;1.10;;;10.30;98.00;;;;;;5113837;28;20457;-73
2021/09/24 06:03:55;;;;;;;1.40;1.30;;;10.10;98.00;;;;;;5114761;28;20520;-73
2021/09/24 06:06:22;;;;;;;1.20;1.00;;;10.10;98.00;;;;;;5114979;28;20474;-72
2021/09/24 06:08:50;;;;;;;1.60;1.00;;;10.10;98.00;;;;;;5114943;28;20443;-71
2021/09/24 06:11:18;;;;;;;1.80;1.43;;;10.20;98.00;;;;;;5114260;28;20471;-72
2021/09/24 06:13:45;;;;;;;1.60;1.20;;;10.20;98.00;;;;;;5114559;28;20467;-71
2021/09/24 06:16:13;;;;;;;1.43;1.10;;;10.30;98.00;;;;;;5114816;28;20460;-72
2021/09/24 06:18:40;;;;;;;1.33;1.10;;;10.20;98.00;;;;;;5114489;28;20958;-71
2021/09/24 06:21:07;;;;;;;1.20;1.10;;;10.30;98.00;;;;;;5113906;28;20558;-73
2021/09/24 06:23:35;;;;;;;1.60;1.20;;;10.30;98.00;;;;;;5114585;28;20454;-72
2021/09/24 06:26:03;;;;;;;1.20;1.13;;;10.30;98.00;;;;;;5113156;28;20495;-72
2021/09/24 06:28:34;;;;;;;1.20;1.10;;;10.40;98.00;;;;;;5114117;27;20496;-72
2021/09/24 06:31:07;;;;;;;1.20;1.13;;;10.40;98.00;;;;;;5114405;28;20456;-71
2021/09/24 06:33:35;;;;;;;1.30;1.23;;;10.60;98.00;;;;;;5114077;28;20452;-71
2021/09/24 06:36:03;;;;;;;2.13;1.37;;;10.70;98.00;;;;;;5114174;28;20486;-72
2021/09/24 06:38:30;;;;;;;1.97;1.20;;;10.90;98.00;;;;;;5114002;28;20455;-73
2021/09/24 06:40:57;;;;;;;1.33;1.07;;;11.00;98.00;;;;;;5113819;28;20994;-72
2021/09/24 06:43:24;;;;;;;2.50;1.20;;;11.00;98.00;;;;;;5113845;28;20513;-72
2021/09/24 06:45:51;;;;;;;1.20;1.00;;;11.10;98.00;;;;;;5114066;28;20455;-72
2021/09/24 06:48:18;;;;;;;1.97;1.50;;;11.10;98.00;;;;;;5112844;28;20506;-73
2021/09/24 06:50:46;;;;;;;1.60;1.20;;;11.20;98.00;;;;;;5114115;28;20477;-72
2021/09/24 06:53:13;;;;;;;2.90;1.70;;;11.30;98.00;;;;;;5113806;28;20538;-72
2021/09/24 06:55:48;;;;;;;1.53;1.20;;;11.30;98.00;;;;;;5112524;28;20934;-73
2021/09/24 06:58:15;;;;;;;1.63;1.10;;;11.50;98.00;;;;;;5113614;28;20466;-71
2021/09/24 07:00:45;;;;;;;3.43;1.43;;;11.50;98.00;;;;;;5113414;28;20521;-72
2021/09/24 07:03:11;;;;;;;2.07;1.30;;;11.60;98.00;;;;;;5113563;28;20453;-72
2021/09/24 07:05:38;;;;;;;1.80;1.67;;;11.70;98.00;;;;;;5113670;28;20852;-73
2021/09/24 07:08:07;;;;;;;1.67;1.20;;;11.80;98.00;;;;;;5113306;28;20493;-72
2021/09/24 07:10:34;;;;;;;1.40;1.27;;;11.90;98.00;;;;;;5112118;28;20515;-72
2021/09/24 07:13:01;;;;;;;1.77;1.47;;;12.00;98.00;;;;;;5113417;28;20447;-72
2021/09/24 07:15:28;;;;;;;1.37;1.20;;;12.10;98.00;;;;;;5113390;28;20459;-72
2021/09/24 07:17:58;;;;;;;1.50;1.27;;;12.10;98.00;;;;;;5113324;28;20462;-73
2021/09/24 07:20:25;;;;;;;1.60;1.57;;;12.20;98.00;;;;;;5112503;28;20483;-72
2021/09/24 07:22:52;;;;;;;1.50;1.30;;;12.40;98.00;;;;;;5113408;28;20454;-71
2021/09/24 07:25:20;;;;;;;2.07;1.40;;;12.50;98.00;;;;;;5113371;28;20453;-72
2021/09/24 07:27:47;;;;;;;1.40;1.27;;;12.70;98.00;;;;;;5113251;28;20454;-71
2021/09/24 07:30:15;;;;;;;1.50;1.33;;;12.70;98.00;;;;;;5112229;28;20452;-72
2021/09/24 07:32:42;;;;;;;1.20;1.10;;;12.70;98.00;;;;;;5113233;28;20459;-72
2021/09/24 07:35:10;;;;;;;1.77;1.27;;;12.70;98.00;;;;;;5113247;28;20954;-72
2021/09/24 07:37:37;;;;;;;1.30;1.20;;;12.80;98.00;;;;;;5113092;28;21023;-72
2021/09/24 07:40:05;;;;;;;1.63;1.43;;;12.80;98.00;;;;;;5113003;28;20517;-72
2021/09/24 07:42:33;;;;;;;1.20;1.00;;;12.90;98.00;;;;;;5112594;28;20465;-72
2021/09/24 07:45:00;;;;;;;1.93;1.30;;;13.10;98.00;;;;;;5112720;28;20452;-72
2021/09/24 07:47:27;;;;;;;1.60;1.40;;;13.20;98.00;;;;;;5112491;28;21014;-73
2021/09/24 07:49:54;;;;;;;3.03;1.70;;;13.30;98.00;;;;;;5112756;28;20476;-73
2021/09/24 07:52:21;;;;;;;1.40;1.30;;;13.50;98.00;;;;;;5112741;28;20464;-72
2021/09/24 07:54:48;;;;;;;2.00;1.83;;;13.70;98.00;;;;;;5111233;28;20443;-71
2021/09/24 07:57:15;;;;;;;1.73;1.40;;;14.00;98.00;;;;;;5101024;28;20539;-73
2021/09/24 07:59:46;;;;;;;2.03;1.50;;;14.10;98.00;;;;;;5103645;28;20579;-72
2021/09/24 08:02:13;;;;;;;1.50;1.27;;;14.10;98.00;;;;;;5106609;28;20447;-74
2021/09/24 08:04:40;;;;;;;2.13;1.60;;;14.30;98.00;;;;;;5098099;28;20460;-73
2021/09/24 08:07:08;;;;;;;2.57;1.60;;;14.50;98.00;;;;;;5107597;28;20496;-73
2021/09/24 08:09:35;;;;;;;4.90;1.40;;;14.60;98.00;;;;;;5108468;28;20451;-74
2021/09/24 08:12:03;;;;;;;1.43;1.20;;;14.80;98.00;;;;;;5102759;28;20465;-72
2021/09/24 08:14:30;;;;;;;2.33;1.50;;;14.90;98.00;;;;;;5091314;28;20530;-72
2021/09/24 08:16:59;;;;;;;1.93;1.70;;;15.10;98.00;;;;;;5096003;28;20446;-72
2021/09/24 08:19:26;;;;;;;1.70;1.53;;;15.40;98.00;;;;;;5094318;28;20870;-72
2021/09/24 08:21:56;;;;;;;3.87;2.00;;;15.50;98.00;;;;;;5091513;28;20488;-72
2021/09/24 08:24:23;;;;;;;1.40;1.23;;;15.70;98.00;;;;;;5096373;28;20983;-72
2021/09/24 08:26:50;;;;;;;2.70;1.70;;;15.80;98.00;;;;;;5102213;28;20490;-72
2021/09/24 08:29:17;;;;;;;2.27;1.57;;;15.90;98.00;;;;;;5094320;28;20513;-74
2021/09/24 08:31:44;;;;;;;2.13;1.43;;;16.00;98.00;;;;;;5096220;28;21241;-71
2021/09/24 08:34:13;;;;;;;2.17;1.67;;;16.20;98.00;;;;;;5103879;28;20446;-73
2021/09/24 08:36:40;;;;;;;1.40;1.40;;;16.30;98.00;;;;;;5107899;28;20511;-72
2021/09/24 08:39:08;;;;;;;2.03;1.57;;;16.40;98.00;;;;;;5094776;28;20468;-72
2021/09/24 08:41:35;;;;;;;2.73;1.80;;;16.50;98.00;;;;;;5104105;28;20491;-73
2021/09/24 08:44:02;;;;;;;2.43;1.70;;;16.60;98.00;;;;;;5104477;28;20488;-72
2021/09/24 08:46:32;;;;;;;1.30;1.27;;;16.80;98.00;;;;;;5091215;28;20506;-71
2021/09/24 08:48:59;;;;;;;2.30;1.60;;;16.90;98.00;;;;;;5094495;28;20458;-72
2021/09/24 08:51:27;;;;;;;2.07;1.57;;;17.10;98.00;;;;;;5105290;28;20980;-72
2021/09/24 08:53:55;;;;;;;2.70;1.67;;;17.20;98.00;;;;;;5103187;28;20450;-73
2021/09/24 08:56:22;;;;;;;1.67;1.40;;;17.40;98.00;;;;;;5095146;28;20508;-72
2021/09/24 08:58:50;;;;;;;2.13;2.00;;;17.60;98.00;;;;;;5098331;28;20903;-73
2021/09/24 09:01:17;;;;;;;1.47;1.40;;;17.70;98.00;;;;;;5091818;28;20494;-71
2021/09/24 09:03:48;;;;;;;1.70;1.60;;;17.60;98.00;;;;;;5095022;28;20484;-75
2021/09/24 09:06:16;;;;;;;1.90;1.40;;;17.50;98.00;;;;;;5102355;28;20455;-73
2021/09/24 09:08:46;;;;;;;2.07;1.40;;;17.40;98.00;;;;;;5103084;28;20567;-73
2021/09/24 09:11:17;;;;;;;1.83;1.80;;;17.30;98.00;;;;;;5089870;28;20456;-72
2021/09/24 09:13:48;;;;;;;1.73;1.60;;;17.30;98.00;;;;;;5104216;28;20450;-72
2021/09/24 09:16:17;;;;;;;1.40;1.20;;;17.30;98.00;;;;;;5096342;28;20531;-75
2021/09/24 09:18:48;;;;;;;2.07;1.57;;;17.40;98.00;;;;;;5095155;28;20460;-72
2021/09/24 09:21:17;;;;;;;2.10;1.40;;;17.40;98.00;;;;;;5094795;28;20494;-71
2021/09/24 09:23:52;;;;;;;8.13;1.63;;;17.70;98.00;;;;;;5092047;28;20534;-72
2021/09/24 09:26:20;;;;;;;1.50;1.20;;;18.00;98.00;;;;;;5103812;28;20470;-72
2021/09/24 09:28:52;;;;;;;2.07;1.50;;;18.20;98.00;;;;;;5103424;28;21051;-70
2021/09/24 09:31:24;;;;;;;1.60;1.30;;;18.30;98.00;;;;;;5103616;28;20979;-73
2021/09/24 09:33:53;;;;;;;2.43;1.53;;;18.40;98.00;;;;;;5100730;28;20455;-73
2021/09/24 09:36:25;;;;;;;2.03;1.90;;;18.40;98.00;;;;;;5103353;28;20558;-74
2021/09/24 09:38:56;;;;;;;1.60;1.33;;;18.30;98.00;;;;;;5106583;28;20455;-72
2021/09/24 09:41:24;;;;;;;2.07;1.43;;;18.20;98.00;;;;;;5101736;28;20571;-72
2021/09/24 09:43:53;;;;;;;3.40;1.70;;;18.10;98.00;;;;;;5110469;28;20929;-73
2021/09/24 09:46:23;;;;;;;2.03;1.50;;;18.10;98.00;;;;;;5109060;28;20451;-73
2021/09/24 09:49:06;;;;;;;1.43;1.37;;;18.40;98.00;;;;;;5102697;28;20497;-72
2021/09/24 09:51:39;;;;;;;1.87;1.60;;;18.60;98.00;;;;;;5109124;28;20479;-74
2021/09/24 09:54:12;;;;;;;1.70;1.50;;;18.90;98.00;;;;;;5110781;28;20983;-73
2021/09/24 09:56:41;;;;;;;2.00;1.47;;;19.40;98.00;;;;;;5098880;28;20464;-71
2021/09/24 09:59:26;;;;;;;2.20;1.80;;;19.90;98.00;;;;;;5100110;28;20525;-72
2021/09/24 10:02:11;;;;;;;2.23;1.87;;;20.40;98.00;;;;;;5091264;28;20484;-75
2021/09/24 10:04:39;;;;;;;1.77;1.53;;;20.50;98.00;;;;;;5086613;28;20483;-73
2021/09/24 10:07:14;;;;;;;2.30;1.83;;;20.20;98.00;;;;;;5103399;28;20464;-71
2021/09/24 10:09:44;;;;;;;1.60;1.50;;;19.80;98.00;;;;;;5109438;28;20497;-71
2021/09/24 10:12:20;;;;;;;1.63;1.60;;;19.90;98.00;;;;;;5092600;28;20518;-70
2021/09/24 10:14:49;;;;;;;1.93;1.80;;;20.20;98.00;;;;;;5101120;28;20541;-72
2021/09/24 10:17:17;;;;;;;1.70;1.60;;;20.60;98.00;;;;;;5109632;28;20546;-72
2021/09/24 10:19:45;;;;;;;1.80;1.70;;;20.90;98.00;;;;;;5096138;28;20483;-72
2021/09/24 10:22:12;;;;;;;2.40;1.77;;;21.30;98.00;;;;;;5092532;28;20908;-72
2021/09/24 10:24:39;;;;;;;1.87;1.43;;;21.70;98.00;;;;;;5101417;28;20462;-72
2021/09/24 10:27:11;;;;;;;1.30;1.30;;;22.00;96.70;;;;;;5091505;28;20454;-72
2021/09/24 10:29:44;;;;;;;2.40;1.80;;;22.20;97.90;;;;;;5101044;28;20515;-72
2021/09/24 10:32:16;;;;;;;1.90;1.53;;;22.50;94.50;;;;;;5100104;28;20464;-73
2021/09/24 10:35:02;;;;;;;1.60;1.30;;;22.50;95.40;;;;;;5094139;28;20494;-73
2021/09/24 10:37:31;;;;;;;2.10;1.40;;;22.60;95.40;;;;;;5108727;28;20493;-72
2021/09/24 10:39:59;;;;;;;2.50;2.10;;;22.30;96.20;;;;;;5100730;28;20508;-73
2021/09/24 10:42:43;;;;;;;2.23;1.70;;;22.30;96.10;;;;;;5097326;28;20567;-73
2021/09/24 10:45:30;;;;;;;2.83;1.97;;;22.10;96.70;;;;;;5092153;28;20459;-73
2021/09/24 10:48:04;;;;;;;2.23;1.70;;;21.90;95.60;;;;;;5091250;28;20462;-71
2021/09/24 10:51:03;;;;;;;2.30;1.67;;;21.30;98.00;;;;;;5105490;28;20509;-70
2021/09/24 10:53:46;;;;;;;1.77;1.40;;;21.00;98.00;;;;;;5106252;28;20824;-72
2021/09/24 10:56:29;;;;;;;1.83;1.40;;;21.10;98.00;;;;;;5100259;28;20456;-71
2021/09/24 10:59:00;;;;;;;2.53;1.83;;;21.10;98.00;;;;;;5106814;28;20459;-71
2021/09/24 11:01:33;;;;;;;2.37;1.83;;;20.90;98.00;;;;;;5108473;28;20576;-71
2021/09/24 11:04:10;;;;;;;1.77;1.77;;;20.70;98.00;;;;;;5091987;28;20612;-71
2021/09/24 11:06:51;;;;;;;2.80;1.70;;;20.50;98.00;;;;;;5091902;28;20452;-72
2021/09/24 11:09:21;;;;;;;2.43;1.57;;;20.30;98.00;;;;;;5073688;28;20456;-73
2021/09/24 11:11:51;;;;;;;3.13;1.80;;;20.10;98.00;;;;;;5100601;28;20520;-72
2021/09/24 11:14:34;;;;;;;1.93;1.50;;;20.40;98.00;;;;;;5098034;28;20492;-72
2021/09/24 11:17:02;;;;;;;2.17;1.50;;;21.20;98.00;;;;;;5092028;28;20524;-72
2021/09/24 11:19:44;;;;;;;2.03;1.70;;;22.10;98.00;;;;;;5080812;28;20597;-73
2021/09/24 11:22:18;;;;;;;1.30;1.20;;;22.80;95.40;;;;;;5097107;28;20531;-73
2021/09/24 11:24:49;;;;;;;1.60;1.60;;;23.40;94.70;;;;;;5109243;28;20467;-73
2021/09/24 11:27:30;;;;;;;2.63;1.73;;;23.80;94.20;;;;;;5109486;28;20482;-72
2021/09/24 11:30:19;;;;;;;1.80;1.37;;;24.20;91.70;;;;;;5100618;28;20455;-74
2021/09/24 11:32:51;;;;;;;2.10;1.70;;;24.00;89.20;;;;;;5090571;28;20514;-72
2021/09/24 11:35:30;;;;;;;2.87;2.00;;;23.50;90.70;;;;;;5101056;28;20487;-75
2021/09/24 11:38:06;;;;;;;2.97;2.13;;;22.70;93.50;;;;;;5093612;28;20451;-75
2021/09/24 11:40:34;;;;;;;2.13;1.63;;;22.90;92.50;;;;;;5095791;28;20456;-75
2021/09/24 11:43:04;;;;;;;1.90;1.60;;;22.70;92.50;;;;;;5100029;28;20536;-75
2021/09/24 11:45:33;;;;;;;1.67;1.37;;;22.70;93.50;;;;;;5095562;28;20451;-74
2021/09/24 11:48:02;;;;;;;2.27;1.70;;;22.60;94.90;;;;;;5104606;28;20460;-76
2021/09/24 11:50:33;;;;;;;2.10;1.60;;;22.30;95.60;;;;;;5097514;28;20587;-78
2021/09/24 11:53:03;;;;;;;1.80;1.50;;;22.70;94.60;;;;;;5108043;28;20455;-73
2021/09/24 11:55:33;;;;;;;1.80;1.63;;;23.10;93.90;;;;;;5094716;28;20486;-72
2021/09/24 11:58:07;;;;;;;1.60;1.50;;;23.40;91.70;;;;;;5095236;28;20463;-73
2021/09/24 12:00:47;;;;;;;2.47;1.60;;;23.60;92.80;;;;;;5108100;28;20477;-73
2021/09/24 12:03:18;;;;;;;4.07;1.73;;;23.80;90.30;;;;;;5100937;28;20529;-73
2021/09/24 12:05:51;;;;;;;2.90;1.70;;;23.80;89.50;;;;;;5071746;28;20966;-73
2021/09/24 12:08:23;;;;;;;1.87;1.50;;;23.40;89.40;;;;;;5108340;28;20467;-73
2021/09/24 12:11:07;;;;;;;2.03;1.60;;;23.40;90.80;;;;;;5099774;28;20833;-73
2021/09/24 12:13:43;;;;;;;3.20;2.10;;;23.60;90.40;;;;;;5083363;28;20953;-78
2021/09/24 12:16:13;;;;;;;2.17;1.70;;;23.40;91.90;;;;;;5092471;28;20459;-74
2021/09/24 12:18:57;;;;;;;2.43;1.83;;;23.60;88.80;;;;;;5112083;28;21061;-72
2021/09/24 12:21:26;;;;;;;1.73;1.60;;;23.40;89.80;;;;;;5111587;28;20989;-71
2021/09/24 12:23:54;;;;;;;1.70;1.50;;;23.40;90.10;;;;;;5112100;28;20843;-70
2021/09/24 12:26:31;;;;;;;1.30;1.20;;;23.40;90.50;;;;;;5112003;28;20455;-72
2021/09/24 12:29:01;;;;;;;2.90;2.00;;;23.40;89.80;;;;;;5111809;28;21021;-71
2021/09/24 12:31:45;;;;;;;1.80;1.70;;;23.30;92.00;;;;;;5111992;28;20957;-72
2021/09/24 12:34:13;;;;;;;2.80;1.87;;;23.30;90.40;;;;;;5110678;28;20443;-71
2021/09/24 12:36:56;;;;;;;2.27;1.60;;;23.50;89.70;;;;;;5111607;28;20474;-71
2021/09/24 12:39:27;;;;;;;1.80;1.63;;;23.60;90.00;;;;;;5111885;28;20528;-72
2021/09/24 12:41:58;;;;;;;3.13;1.73;;;23.70;90.20;;;;;;5111944;28;20583;-71
2021/09/24 12:44:25;;;;;;;1.77;1.63;;;23.60;89.70;;;;;;5111802;28;20459;-71
2021/09/24 12:46:59;;;;;;;2.50;2.00;;;23.60;90.60;;;;;;5111846;28;21093;-71
2021/09/24 12:49:28;;;;;;;1.77;1.50;;;23.70;88.50;;;;;;5111791;28;20968;-71
2021/09/24 12:51:58;;;;;;;2.10;1.87;;;23.80;89.00;;;;;;5112032;28;20905;-72
2021/09/24 12:54:26;;;;;;;1.70;1.70;;;23.60;87.40;;;;;;5112049;28;20987;-71
2021/09/24 12:56:55;;;;;;;1.90;1.50;;;23.70;88.30;;;;;;5112251;28;20504;-72
2021/09/24 12:59:22;;;;;;;2.10;1.80;;;23.90;87.80;;;;;;5111860;28;20459;-71